createdAt,value
2023-03-08T00:02:37.689Z,99373.56
2023-03-08T00:05:21.376Z,99384.47
2023-03-08T00:08:04.992Z,99375.94
2023-03-08T00:10:48.773Z,99388.31
2023-03-08T00:13:32.570Z,99375.22
2023-03-08T00:16:16.450Z,99386.94
2023-03-08T00:19:01.653Z,99376.91
2023-03-08T00:21:45.447Z,99268.69
2023-03-08T00:24:29.180Z,99374.59
2023-03-08T00:27:12.943Z,99380.63
2023-03-08T00:29:56.893Z,99385.94
2023-03-08T00:32:43.192Z,99376.84
2023-03-08T00:35:31.160Z,99379.34
2023-03-08T00:38:14.927Z,99377.91
2023-03-08T00:40:58.786Z,99372.06
2023-03-08T00:43:43.582Z,99345.88
2023-03-08T00:46:27.657Z,99364.88
2023-03-08T00:49:12.665Z,99370.13
2023-03-08T00:51:57.839Z,99352.97
2023-03-08T00:54:41.729Z,99368.56
2023-03-08T00:57:25.440Z,99366.22
2023-03-08T01:00:12.815Z,99357.06
2023-03-08T01:02:57.668Z,99358.75
2023-03-08T01:05:45.535Z,99354.47
2023-03-08T01:08:31.337Z,99371.34
2023-03-08T01:11:21.238Z,99356.19
2023-03-08T01:14:06.613Z,99351.22
2023-03-08T01:16:52.499Z,99357.00
2023-03-08T01:19:36.231Z,99330.72
2023-03-08T01:22:21.291Z,99365.25
2023-03-08T01:25:07.208Z,99345.25
2023-03-08T01:27:51.101Z,99355.28
2023-03-08T01:30:35.256Z,99346.63
2023-03-08T01:33:21.070Z,99354.06
2023-03-08T01:36:08.598Z,99353.97
2023-03-08T01:38:53.198Z,99337.06
2023-03-08T01:41:39.389Z,99341.16
2023-03-08T01:44:23.538Z,99356.69
2023-03-08T01:47:15.152Z,99361.69
2023-03-08T01:50:17.881Z,99355.78
2023-03-08T01:53:01.769Z,99350.72
2023-03-08T01:55:45.635Z,99351.34
2023-03-08T01:58:31.704Z,99339.69
2023-03-08T02:01:15.984Z,99350.91
2023-03-08T02:04:00.713Z,99342.19
2023-03-08T02:06:45.559Z,99342.94
2023-03-08T02:09:31.378Z,99349.44
2023-03-08T02:12:16.403Z,99354.75
2023-03-08T02:15:03.798Z,99341.31
2023-03-08T02:17:48.460Z,99345.25
2023-03-08T02:20:34.273Z,99349.25
2023-03-08T02:23:26.976Z,99357.59
2023-03-08T02:26:10.832Z,99362.38
2023-03-08T02:28:54.642Z,99370.09
2023-03-08T02:31:38.614Z,99372.28
2023-03-08T02:34:22.517Z,99377.31
2023-03-08T02:37:06.277Z,99374.56
2023-03-08T02:39:51.558Z,99375.16
2023-03-08T02:42:35.458Z,99375.31
2023-03-08T02:45:19.386Z,99353.13
2023-03-08T02:48:03.487Z,99357.50
2023-03-08T02:50:47.489Z,99351.25
2023-03-08T02:53:31.545Z,99367.88
2023-03-08T02:56:17.932Z,99350.88
2023-03-08T02:59:02.351Z,99361.41
2023-03-08T03:01:46.204Z,99339.81
2023-03-08T03:04:31.351Z,99337.38
2023-03-08T03:07:15.546Z,99360.75
2023-03-08T03:10:00.062Z,99360.59
2023-03-08T03:12:45.560Z,99367.28
2023-03-08T03:15:34.276Z,99362.63
2023-03-08T03:18:18.126Z,99361.41
2023-03-08T03:21:05.254Z,99367.16
2023-03-08T03:23:49.124Z,99368.25
2023-03-08T03:26:35.826Z,99324.19
2023-03-08T03:29:20.936Z,99366.06
2023-03-08T03:32:09.423Z,99373.94
2023-03-08T03:34:53.342Z,99377.28
2023-03-08T03:37:38.727Z,99384.81
2023-03-08T03:40:23.350Z,99390.34
2023-03-08T03:43:12.662Z,99390.84
2023-03-08T03:45:59.670Z,99395.38
2023-03-08T03:48:44.714Z,99387.34
2023-03-08T03:51:29.940Z,99391.22
2023-03-08T03:54:25.386Z,99383.44
2023-03-08T03:57:10.352Z,99379.03
2023-03-08T03:59:57.580Z,99387.31
2023-03-08T04:02:43.066Z,99375.03
2023-03-08T04:05:29.786Z,99391.88
2023-03-08T04:08:13.706Z,99392.19
2023-03-08T04:11:01.755Z,99391.78
2023-03-08T04:13:46.578Z,99396.91
2023-03-08T04:16:32.420Z,99391.63
2023-03-08T04:19:22.185Z,99391.13
2023-03-08T04:22:09.981Z,99385.91
2023-03-08T04:25:01.347Z,99383.78
2023-03-08T04:28:04.893Z,99381.63
2023-03-08T04:30:49.746Z,99389.59
2023-03-08T04:33:35.522Z,99386.34
2023-03-08T04:36:21.837Z,99363.88
2023-03-08T04:39:06.529Z,99383.34
2023-03-08T04:41:51.086Z,99390.75
2023-03-08T04:44:47.408Z,99387.78
2023-03-08T04:47:35.364Z,99385.06
2023-03-08T04:50:19.782Z,99385.78
2023-03-08T04:53:05.020Z,99385.25
2023-03-08T04:55:49.650Z,99391.63
2023-03-08T04:58:34.728Z,99383.00
2023-03-08T05:01:20.650Z,99383.69
2023-03-08T05:04:04.628Z,99380.13
2023-03-08T05:06:53.847Z,99386.59
2023-03-08T05:09:43.171Z,99385.50
2023-03-08T05:12:27.417Z,99365.19
2023-03-08T05:15:14.691Z,99318.47
2023-03-08T05:17:58.711Z,99402.25
2023-03-08T05:20:42.626Z,99414.38
2023-03-08T05:23:28.988Z,99430.38
2023-03-08T05:26:17.500Z,99410.59
2023-03-08T05:29:03.581Z,99377.94
2023-03-08T05:31:51.273Z,99428.84
2023-03-08T05:34:36.038Z,99422.50
2023-03-08T05:37:27.343Z,99426.50
2023-03-08T05:40:14.604Z,99426.00
2023-03-08T05:43:02.757Z,99421.31
2023-03-08T05:45:56.700Z,99394.84
2023-03-08T05:48:41.756Z,99417.72
2023-03-08T05:51:25.854Z,99391.00
2023-03-08T05:54:10.910Z,99407.28
2023-03-08T05:56:56.307Z,99429.72
2023-03-08T05:59:44.637Z,99429.81
2023-03-08T06:02:31.954Z,99395.34
2023-03-08T06:05:15.962Z,99401.81
2023-03-08T06:08:01.256Z,99431.94
2023-03-08T06:10:45.310Z,99437.59
2023-03-08T06:13:29.779Z,99431.28
2023-03-08T06:16:15.910Z,99416.34
2023-03-08T06:18:59.981Z,99433.28
2023-03-08T06:21:44.327Z,99434.72
2023-03-08T06:24:29.098Z,99447.72
2023-03-08T06:27:15.412Z,99445.66
2023-03-08T06:30:00.103Z,99414.66
2023-03-08T06:32:46.042Z,99427.38
2023-03-08T06:35:30.093Z,99424.06
2023-03-08T06:38:18.151Z,99438.19
2023-03-08T06:41:04.084Z,99453.38
2023-03-08T06:43:49.219Z,99462.78
2023-03-08T06:46:33.328Z,99431.78
2023-03-08T06:49:18.613Z,99452.38
2023-03-08T06:52:02.534Z,99468.78
2023-03-08T06:54:46.432Z,99461.13
2023-03-08T06:57:30.537Z,99473.94
2023-03-08T07:00:15.906Z,99472.03
2023-03-08T07:02:59.878Z,99472.06
2023-03-08T07:05:45.131Z,99472.94
2023-03-08T07:08:28.951Z,99481.53
2023-03-08T07:11:12.809Z,99470.63
2023-03-08T07:13:56.624Z,99477.00
2023-03-08T07:16:40.576Z,99488.25
2023-03-08T07:19:24.607Z,99476.13
2023-03-08T07:22:10.531Z,99465.28
2023-03-08T07:24:54.464Z,99492.75
2023-03-08T07:27:38.334Z,99490.50
2023-03-08T07:30:22.435Z,99491.16
2023-03-08T07:33:06.420Z,99491.25
2023-03-08T07:35:50.416Z,99499.88
2023-03-08T07:38:35.655Z,99505.81
2023-03-08T07:41:19.433Z,99503.38
2023-03-08T07:44:03.772Z,99503.59
2023-03-08T07:46:48.102Z,99504.31
2023-03-08T07:49:32.162Z,99505.13
2023-03-08T07:52:16.365Z,99483.00
2023-03-08T07:55:02.358Z,99501.31
2023-03-08T07:57:47.631Z,99499.41
2023-03-08T08:00:31.607Z,99499.41
2023-03-08T08:03:15.582Z,99508.53
2023-03-08T08:06:04.118Z,99509.44
2023-03-08T08:08:47.884Z,99508.25
2023-03-08T08:11:34.314Z,99510.78
2023-03-08T08:14:18.181Z,99493.00
2023-03-08T08:17:02.212Z,99502.97
2023-03-08T08:19:45.967Z,99501.03
2023-03-08T08:22:29.784Z,99501.09
2023-03-08T08:25:13.523Z,99499.88
2023-03-08T08:27:58.791Z,99498.06
2023-03-08T08:30:42.644Z,99485.72
2023-03-08T08:33:26.581Z,99504.81
2023-03-08T08:36:14.382Z,99496.75
2023-03-08T08:38:58.190Z,99490.69
2023-03-08T08:41:41.924Z,99488.91
2023-03-08T08:44:27.228Z,99478.16
2023-03-08T08:47:11.214Z,99479.94
2023-03-08T08:49:55.131Z,99440.13
2023-03-08T08:52:39.024Z,99478.13
2023-03-08T08:55:22.767Z,99444.91
2023-03-08T08:58:07.462Z,99477.44
2023-03-08T09:00:52.729Z,99477.78
2023-03-08T09:03:36.655Z,99448.06
2023-03-08T09:06:21.956Z,99457.47
2023-03-08T09:09:06.807Z,99476.56
2023-03-08T09:11:55.275Z,99440.94
2023-03-08T09:14:39.642Z,99460.84
2023-03-08T09:17:24.936Z,99469.34
2023-03-08T09:20:10.555Z,99462.69
2023-03-08T09:22:54.305Z,99460.47
2023-03-08T09:25:38.114Z,99461.41
2023-03-08T09:28:21.877Z,99471.50
2023-03-08T09:31:12.109Z,99471.22
2023-03-08T09:33:58.173Z,99468.50
2023-03-08T09:36:42.480Z,99471.19
2023-03-08T09:39:26.473Z,99474.34
2023-03-08T09:42:20.854Z,99459.78
2023-03-08T09:45:16.284Z,99442.63
2023-03-08T09:48:05.469Z,99448.53
2023-03-08T09:50:52.570Z,99445.03
2023-03-08T09:53:41.134Z,99455.31
2023-03-08T09:56:31.121Z,99443.44
2023-03-08T09:59:20.652Z,99431.50
2023-03-08T10:02:18.246Z,99444.47
2023-03-08T10:05:13.752Z,99436.56
2023-03-08T10:08:05.837Z,99440.84
2023-03-08T10:10:56.311Z,99444.50
2023-03-08T10:13:42.841Z,99434.69
2023-03-08T10:16:29.771Z,99429.25
2023-03-08T10:19:19.032Z,99417.31
2023-03-08T10:22:10.572Z,99420.84
2023-03-08T10:24:59.562Z,99420.38
2023-03-08T10:27:43.732Z,99384.38
2023-03-08T10:30:29.608Z,99423.84
2023-03-08T10:33:15.262Z,99425.28
2023-03-08T10:36:02.361Z,99421.19
2023-03-08T10:38:58.771Z,99393.06
2023-03-08T10:41:46.368Z,99374.13
2023-03-08T10:44:40.049Z,99407.53
2023-03-08T10:47:26.583Z,99399.72
2023-03-08T10:50:16.905Z,99404.22
2023-03-08T10:53:11.428Z,99407.47
2023-03-08T10:55:55.442Z,99407.41
2023-03-08T10:58:41.909Z,99399.28
2023-03-08T11:01:27.942Z,99392.28
2023-03-08T11:04:17.133Z,99391.13
2023-03-08T11:07:12.838Z,99399.50
2023-03-08T11:10:16.082Z,99382.59
2023-03-08T11:13:04.591Z,99390.91
2023-03-08T11:15:57.028Z,99390.72
2023-03-08T11:18:54.588Z,99387.50
2023-03-08T11:21:51.349Z,99347.69
2023-03-08T11:24:54.088Z,99349.22
2023-03-08T11:27:50.273Z,99387.16
2023-03-08T11:30:45.357Z,99379.53
2023-03-08T11:33:55.974Z,99374.50
2023-03-08T11:36:48.195Z,99379.28
2023-03-08T11:39:34.586Z,99382.06
2023-03-08T11:42:27.137Z,99399.41
2023-03-08T11:45:22.417Z,99386.44
2023-03-08T11:48:34.299Z,99357.00
2023-03-08T11:51:23.944Z,99378.41
2023-03-08T11:54:17.083Z,99378.31
2023-03-08T11:57:03.217Z,99381.28
2023-03-08T11:59:51.853Z,99379.34
2023-03-08T12:02:40.001Z,99376.50
2023-03-08T12:05:29.392Z,99362.72
2023-03-08T12:08:18.627Z,99380.13
2023-03-08T12:11:06.885Z,99381.97
2023-03-08T12:13:54.620Z,99377.56
2023-03-08T12:16:46.279Z,99384.72
2023-03-08T12:19:39.170Z,99351.25
2023-03-08T12:22:45.605Z,99372.81
2023-03-08T12:25:33.850Z,99368.28
2023-03-08T12:28:24.528Z,99361.03
2023-03-08T12:31:27.830Z,99332.84
2023-03-08T12:34:27.480Z,99353.63
2023-03-08T12:37:32.825Z,99339.13
2023-03-08T12:40:40.458Z,99357.72
2023-03-08T12:43:31.991Z,99348.47
2023-03-08T12:46:15.887Z,99361.44
2023-03-08T12:48:59.897Z,99344.78
2023-03-08T12:51:43.899Z,99359.16
2023-03-08T12:54:31.120Z,99361.19
2023-03-08T12:57:24.465Z,99348.16
2023-03-08T13:00:26.905Z,99346.34
2023-03-08T13:03:29.538Z,99343.00
2023-03-08T13:06:33.773Z,99352.34
2023-03-08T13:09:30.014Z,99348.38
2023-03-08T13:12:24.295Z,99346.81
2023-03-08T13:15:26.790Z,99356.78
2023-03-08T13:18:17.094Z,99320.44
2023-03-08T13:21:19.824Z,99351.25
2023-03-08T13:24:11.265Z,99353.34
2023-03-08T13:27:08.555Z,99343.72
2023-03-08T13:29:55.061Z,99336.34
2023-03-08T13:32:40.805Z,99356.75
2023-03-08T13:35:25.025Z,99335.31
2023-03-08T13:38:08.812Z,99355.09
2023-03-08T13:40:53.323Z,99344.47
2023-03-08T13:43:37.571Z,99343.16
2023-03-08T13:46:23.870Z,99348.91
2023-03-08T13:49:15.899Z,99349.53
2023-03-08T13:52:02.078Z,99343.09
2023-03-08T13:54:48.664Z,99320.09
2023-03-08T13:57:38.659Z,99348.56
2023-03-08T14:00:31.404Z,99348.91
2023-03-08T14:03:22.005Z,99338.63
2023-03-08T14:06:06.317Z,99334.00
2023-03-08T14:08:51.512Z,99304.94
2023-03-08T14:11:38.244Z,99345.09
2023-03-08T14:14:30.570Z,99345.91
2023-03-08T14:17:21.668Z,99345.31
2023-03-08T14:20:20.522Z,99325.03
2023-03-08T14:23:04.799Z,99342.16
2023-03-08T14:25:58.157Z,99324.50
2023-03-08T14:28:43.309Z,99341.34
2023-03-08T14:31:28.274Z,99330.06
2023-03-08T14:34:23.951Z,99327.25
2023-03-08T14:37:23.162Z,99338.03
2023-03-08T14:40:26.341Z,99337.88
2023-03-08T14:43:17.693Z,99329.44
2023-03-08T14:46:03.904Z,99346.31
2023-03-08T14:48:59.294Z,99337.47
2023-03-08T14:51:44.189Z,99340.25
2023-03-08T14:54:34.857Z,99343.38
2023-03-08T14:57:21.203Z,99348.44
2023-03-08T15:00:14.226Z,99350.28
2023-03-08T15:02:58.600Z,99360.63
2023-03-08T15:05:42.765Z,99314.28
2023-03-08T15:08:27.283Z,99350.94
2023-03-08T15:11:12.733Z,99337.59
2023-03-08T15:13:56.841Z,99339.56
2023-03-08T15:16:40.936Z,99316.84
2023-03-08T15:19:24.909Z,99346.34
2023-03-08T15:22:09.052Z,99351.72
2023-03-08T15:24:52.935Z,99344.47
2023-03-08T15:27:38.476Z,99339.44
2023-03-08T15:30:23.879Z,99342.78
2023-03-08T15:33:07.678Z,99344.25
2023-03-08T15:35:52.105Z,99353.28
2023-03-08T15:38:36.337Z,99350.75
2023-03-08T15:41:20.500Z,99361.97
2023-03-08T15:44:06.926Z,99363.66
2023-03-08T15:46:52.722Z,99367.88
2023-03-08T15:49:37.130Z,99364.63
2023-03-08T15:52:23.361Z,99341.97
2023-03-08T15:55:11.802Z,99352.03
2023-03-08T15:57:56.259Z,99379.56
2023-03-08T16:00:41.871Z,99369.41
2023-03-08T16:03:31.109Z,99336.06
2023-03-08T16:06:17.737Z,99348.69
2023-03-08T16:09:01.638Z,99384.47
2023-03-08T16:11:48.130Z,99356.78
2023-03-08T16:14:32.484Z,99392.47
2023-03-08T16:17:19.230Z,99396.28
2023-03-08T16:20:05.276Z,99364.41
2023-03-08T16:22:50.182Z,99394.50
2023-03-08T16:25:34.423Z,99401.06
2023-03-08T16:28:18.445Z,99403.97
2023-03-08T16:31:02.465Z,99397.75
2023-03-08T16:33:48.068Z,99401.25
2023-03-08T16:36:32.360Z,99398.72
2023-03-08T16:39:16.703Z,99345.63
2023-03-08T16:42:00.622Z,99401.25
2023-03-08T16:44:51.234Z,99415.47
2023-03-08T16:47:35.309Z,99424.28
2023-03-08T16:50:20.990Z,99430.56
2023-03-08T16:53:05.828Z,99392.91
2023-03-08T16:55:50.608Z,99432.28
2023-03-08T16:58:34.707Z,99431.31
2023-03-08T17:01:20.399Z,99434.69
2023-03-08T17:04:04.309Z,99432.22
2023-03-08T17:06:50.154Z,99435.69
2023-03-08T17:09:33.860Z,99434.88
2023-03-08T17:12:19.509Z,99431.44
2023-03-08T17:15:04.818Z,99438.72
2023-03-08T17:17:48.610Z,99446.63
2023-03-08T17:20:32.749Z,99448.25
2023-03-08T17:23:18.543Z,99406.09
2023-03-08T17:26:05.668Z,99451.69
2023-03-08T17:28:50.392Z,99462.09
2023-03-08T17:31:34.379Z,99459.34
2023-03-08T17:34:18.440Z,99462.63
2023-03-08T17:37:02.275Z,99457.06
2023-03-08T17:39:47.505Z,99466.38
2023-03-08T17:42:31.229Z,99440.38
2023-03-08T17:45:16.165Z,99480.28
2023-03-08T17:48:02.810Z,99479.25
2023-03-08T17:50:47.238Z,99476.09
2023-03-08T17:53:31.381Z,99489.28
2023-03-08T17:56:18.418Z,99485.91
2023-03-08T17:59:03.879Z,99486.81
2023-03-08T18:01:47.968Z,99485.25
2023-03-08T18:04:32.049Z,99483.34
2023-03-08T18:07:17.334Z,99454.13
2023-03-08T18:10:02.002Z,99484.53
2023-03-08T18:12:47.454Z,99488.13
2023-03-08T18:15:31.241Z,99469.59
2023-03-08T18:18:15.004Z,99451.06
2023-03-08T18:21:12.175Z,99490.13
2023-03-08T18:23:56.818Z,99488.66
2023-03-08T18:26:40.644Z,99492.16
2023-03-08T18:29:26.185Z,99493.41
2023-03-08T18:32:10.192Z,99473.00
2023-03-08T18:34:54.124Z,99485.25
2023-03-08T18:37:38.024Z,99502.84
2023-03-08T18:40:21.953Z,99504.44
2023-03-08T18:43:05.861Z,99514.06
2023-03-08T18:45:55.600Z,99518.53
2023-03-08T18:48:39.428Z,99512.97
2023-03-08T18:51:23.331Z,99483.72
2023-03-08T18:54:09.158Z,99516.59
2023-03-08T18:56:54.285Z,99523.19
2023-03-08T18:59:38.276Z,99523.03
2023-03-08T19:02:28.248Z,99527.41
2023-03-08T19:05:12.797Z,99527.56
2023-03-08T19:07:56.629Z,99528.38
2023-03-08T19:10:40.402Z,99532.97
2023-03-08T19:13:24.324Z,99497.94
2023-03-08T19:16:18.761Z,99523.94
2023-03-08T19:19:06.546Z,99530.97
2023-03-08T19:21:50.865Z,99484.63
2023-03-08T19:24:34.693Z,99529.34
2023-03-08T19:27:18.556Z,99521.31
2023-03-08T19:30:02.758Z,99534.69
2023-03-08T19:32:49.640Z,99507.88
2023-03-08T19:35:36.930Z,99531.22
2023-03-08T19:38:20.685Z,99524.00
2023-03-08T19:41:04.478Z,99517.25
2023-03-08T19:43:48.386Z,99522.56
2023-03-08T19:46:32.378Z,99527.03
2023-03-08T19:49:21.063Z,99521.44
2023-03-08T19:52:07.615Z,99513.75
2023-03-08T19:54:51.363Z,99518.38
2023-03-08T19:57:35.278Z,99513.88
2023-03-08T20:00:20.229Z,99519.16
2023-03-08T20:03:04.391Z,99520.28
2023-03-08T20:05:48.910Z,99516.84
2023-03-08T20:08:36.193Z,99520.97
2023-03-08T20:11:20.365Z,99499.16
2023-03-08T20:14:04.915Z,99502.78
2023-03-08T20:16:49.047Z,99488.06
2023-03-08T20:19:34.228Z,99516.25
2023-03-08T20:22:18.277Z,99509.63
2023-03-08T20:25:03.885Z,99514.94
2023-03-08T20:27:47.993Z,99524.41
2023-03-08T20:30:32.148Z,99444.03
2023-03-08T20:33:16.817Z,99506.41
2023-03-08T20:36:02.258Z,99516.97
2023-03-08T20:38:46.744Z,99483.94
2023-03-08T20:41:32.277Z,99536.22
2023-03-08T20:44:16.291Z,99480.38
2023-03-08T20:47:00.394Z,99491.56
2023-03-08T20:49:44.721Z,99522.44
2023-03-08T20:52:29.084Z,99527.41
2023-03-08T20:55:13.208Z,99485.78
2023-03-08T20:57:58.733Z,99532.03
2023-03-08T21:00:42.844Z,99525.88
2023-03-08T21:03:27.795Z,99528.75
2023-03-08T21:06:13.462Z,99531.19
2023-03-08T21:08:58.442Z,99521.03
2023-03-08T21:11:43.707Z,99524.88
2023-03-08T21:14:30.168Z,99514.38
2023-03-08T21:17:14.175Z,99492.72
2023-03-08T21:19:58.476Z,99490.66
2023-03-08T21:22:46.418Z,99485.53
2023-03-08T21:25:30.793Z,99520.31
2023-03-08T21:28:17.540Z,99492.50
2023-03-08T21:31:03.282Z,99526.44
2023-03-08T21:33:49.095Z,99490.56
2023-03-08T21:36:33.753Z,99485.34
2023-03-08T21:39:17.920Z,99488.19
2023-03-08T21:42:01.979Z,99491.88
2023-03-08T21:44:46.101Z,99517.81
2023-03-08T21:47:31.441Z,99483.09
2023-03-08T21:50:15.426Z,99522.53
2023-03-08T21:52:59.572Z,99517.22
2023-03-08T21:55:43.718Z,99518.53
2023-03-08T21:58:28.034Z,99482.69
2023-03-08T22:01:20.165Z,99507.09
2023-03-08T22:04:06.898Z,99513.00
2023-03-08T22:06:50.959Z,99514.16
2023-03-08T22:09:34.929Z,99502.06
2023-03-08T22:12:20.086Z,99510.94
2023-03-08T22:15:04.398Z,99521.81
2023-03-08T22:17:48.421Z,99484.72
2023-03-08T22:20:33.884Z,99521.22
2023-03-08T22:23:18.372Z,99516.56
2023-03-08T22:26:02.474Z,99514.94
2023-03-08T22:28:46.916Z,99512.34
2023-03-08T22:31:31.738Z,99508.09
2023-03-08T22:34:15.861Z,99474.84
2023-03-08T22:37:01.725Z,99453.44
2023-03-08T22:39:45.805Z,99464.41
2023-03-08T22:42:29.845Z,99491.78
2023-03-08T22:45:14.800Z,99492.06
2023-03-08T22:48:00.773Z,99454.16
2023-03-08T22:50:45.061Z,99454.44
2023-03-08T22:53:30.595Z,99487.72
2023-03-08T22:56:21.011Z,99443.44
2023-03-08T22:59:05.287Z,99473.75
2023-03-08T23:01:49.422Z,99446.00
2023-03-08T23:04:33.484Z,99469.41
2023-03-08T23:07:17.770Z,99436.03
2023-03-08T23:10:04.412Z,99469.53
2023-03-08T23:12:48.761Z,99457.63
2023-03-08T23:15:32.783Z,99470.28
2023-03-08T23:18:16.794Z,99444.34
2023-03-08T23:21:04.086Z,99459.75
2023-03-08T23:23:48.460Z,99434.56
2023-03-08T23:26:34.271Z,99473.03
2023-03-08T23:29:18.443Z,99430.19
2023-03-08T23:32:02.523Z,99435.22
2023-03-08T23:34:46.680Z,99430.75
2023-03-08T23:37:30.891Z,99468.72
2023-03-08T23:40:16.041Z,99426.41
2023-03-08T23:43:01.701Z,99453.44
2023-03-08T23:45:45.700Z,99454.16
2023-03-08T23:48:29.677Z,99413.75
2023-03-08T23:51:16.182Z,99443.53
2023-03-08T23:54:02.156Z,99442.38
2023-03-08T23:56:46.149Z,99396.00
2023-03-08T23:59:31.576Z,99441.09
